Time;durP1;ratioP1;P1;durP2;ratioP2;P2;SDS_P1;SDS_P2;PMS_P1;PMS_P2;Temp;Humidity;BMP_temperature;BMP_pressure;BME280_temperature;BME280_humidity;BME280_pressure;Samples;Min_cycle;Max_cycle;Signal;HPM_P1;HPM_P2
2023/11/20 00:01:47;;;;;;;6.90;4.97;;;13.00;99.90;;;;;;5051729;28;20172;-61
2023/11/20 00:04:13;;;;;;;4.57;4.37;;;13.00;99.90;;;;;;5092057;28;20182;-62
2023/11/20 00:06:39;;;;;;;5.33;5.03;;;13.00;99.90;;;;;;5090098;28;21049;-62
2023/11/20 00:09:07;;;;;;;5.20;4.90;;;13.00;99.90;;;;;;5090669;28;20245;-62
2023/11/20 00:11:33;;;;;;;6.70;5.10;;;13.00;99.90;;;;;;5065158;28;20422;-58
2023/11/20 00:13:59;;;;;;;5.83;5.40;;;13.10;99.90;;;;;;5092417;28;20424;-61
2023/11/20 00:16:25;;;;;;;6.63;5.00;;;13.10;99.90;;;;;;5069354;28;20477;-60
2023/11/20 00:18:51;;;;;;;5.30;4.60;;;13.10;99.90;;;;;;5079087;28;20812;-60
2023/11/20 00:21:17;;;;;;;7.70;5.20;;;13.10;99.90;;;;;;5092287;28;20515;-60
2023/11/20 00:23:43;;;;;;;5.43;5.03;;;13.00;99.90;;;;;;5062935;28;20438;-61
2023/11/20 00:26:14;;;;;;;5.10;4.73;;;13.00;99.90;;;;;;5062123;28;20201;-60
2023/11/20 00:28:41;;;;;;;5.33;5.00;;;13.00;99.90;;;;;;5091146;28;20274;-59
2023/11/20 00:31:17;;;;;;;4.77;4.47;;;13.00;99.90;;;;;;5090437;28;20474;-60
2023/11/20 00:33:42;;;;;;;4.90;4.50;;;13.10;99.90;;;;;;5078279;28;20410;-60
2023/11/20 00:36:09;;;;;;;5.00;4.70;;;13.10;99.90;;;;;;5052406;28;20941;-60
2023/11/20 00:38:35;;;;;;;4.90;4.60;;;13.10;99.90;;;;;;5051624;28;20465;-59
2023/11/20 00:41:02;;;;;;;6.43;4.80;;;13.10;99.90;;;;;;5072508;28;20482;-61
2023/11/20 00:43:28;;;;;;;5.47;4.97;;;13.10;99.90;;;;;;5090178;28;20409;-60
2023/11/20 00:45:54;;;;;;;8.17;5.20;;;13.10;99.90;;;;;;5091990;28;20440;-60
2023/11/20 00:48:20;;;;;;;5.30;4.90;;;13.20;99.90;;;;;;5090212;28;20433;-61
2023/11/20 00:50:46;;;;;;;7.97;5.57;;;13.20;99.90;;;;;;5071719;28;20667;-61
2023/11/20 00:53:11;;;;;;;5.40;4.90;;;13.20;99.90;;;;;;5085736;28;20188;-60
2023/11/20 00:55:37;;;;;;;6.00;5.40;;;13.20;99.90;;;;;;5073148;28;20183;-60
2023/11/20 00:58:03;;;;;;;9.20;5.40;;;13.20;99.90;;;;;;5091807;28;20433;-61
2023/11/20 01:00:29;;;;;;;6.30;5.50;;;13.10;99.90;;;;;;5075873;28;20168;-61
2023/11/20 01:02:54;;;;;;;5.97;5.37;;;13.20;99.90;;;;;;5083067;28;20201;-61
2023/11/20 01:05:22;;;;;;;5.43;4.93;;;13.20;99.90;;;;;;5091407;28;20176;-61
2023/11/20 01:07:48;;;;;;;7.20;6.03;;;13.20;99.90;;;;;;5095357;28;20192;-60
2023/11/20 01:10:14;;;;;;;5.43;4.80;;;13.20;99.90;;;;;;5094133;28;20517;-61
2023/11/20 01:12:39;;;;;;;7.57;6.03;;;13.20;99.90;;;;;;5079551;28;20511;-60
2023/11/20 01:15:06;;;;;;;8.27;5.70;;;13.10;99.90;;;;;;5095568;28;20707;-61
2023/11/20 01:17:32;;;;;;;5.80;4.80;;;13.20;99.90;;;;;;5075710;28;20523;-62
2023/11/20 01:19:57;;;;;;;4.60;4.20;;;13.20;99.90;;;;;;5092326;28;20433;-61
2023/11/20 01:22:23;;;;;;;5.00;4.30;;;13.10;99.90;;;;;;5095684;28;20413;-62
2023/11/20 01:24:50;;;;;;;5.13;4.50;;;13.10;99.90;;;;;;5090224;28;20530;-61
2023/11/20 01:27:15;;;;;;;4.73;3.87;;;13.10;99.90;;;;;;5067719;28;20199;-63
2023/11/20 01:29:41;;;;;;;5.43;4.50;;;13.10;99.90;;;;;;5094913;28;20398;-61
2023/11/20 01:32:07;;;;;;;6.80;4.50;;;13.10;99.90;;;;;;5093786;28;20271;-61
2023/11/20 01:34:33;;;;;;;7.10;4.90;;;13.10;99.90;;;;;;5093773;28;20527;-62
2023/11/20 01:36:58;;;;;;;9.43;5.20;;;13.10;99.90;;;;;;5092805;28;20441;-61
2023/11/20 01:39:24;;;;;;;5.57;4.00;;;13.10;99.90;;;;;;5089572;28;20254;-61
2023/11/20 01:41:50;;;;;;;7.53;4.97;;;13.10;99.90;;;;;;5092872;28;20267;-62
2023/11/20 01:44:16;;;;;;;5.80;4.40;;;13.10;99.90;;;;;;5093616;28;20625;-61
2023/11/20 01:46:42;;;;;;;6.90;5.50;;;13.10;99.90;;;;;;5092596;28;20199;-61
2023/11/20 01:49:08;;;;;;;5.73;4.53;;;13.10;99.90;;;;;;5095230;28;20451;-62
2023/11/20 01:51:35;;;;;;;5.30;4.90;;;13.10;99.90;;;;;;5093283;28;20472;-62
2023/11/20 01:54:02;;;;;;;6.43;4.63;;;13.10;99.90;;;;;;5073691;28;20428;-62
2023/11/20 01:56:29;;;;;;;6.60;4.97;;;13.20;99.90;;;;;;5095068;28;20757;-62
2023/11/20 01:58:59;;;;;;;4.80;4.10;;;13.20;99.90;;;;;;5092708;28;20490;-62
2023/11/20 02:01:25;;;;;;;4.40;4.00;;;13.20;99.90;;;;;;5093466;28;20441;-62
2023/11/20 02:03:58;;;;;;;3.90;3.60;;;13.20;99.90;;;;;;5092285;28;20433;-62
2023/11/20 02:06:25;;;;;;;5.23;4.20;;;13.20;99.90;;;;;;5092660;28;20449;-61
2023/11/20 02:08:50;;;;;;;4.80;4.17;;;13.20;99.90;;;;;;5085264;28;20426;-62
2023/11/20 02:11:17;;;;;;;4.33;3.53;;;13.20;99.90;;;;;;5092774;28;20447;-62
2023/11/20 02:13:44;;;;;;;5.50;4.00;;;13.20;99.90;;;;;;5094161;28;20222;-61
2023/11/20 02:16:10;;;;;;;4.70;3.13;;;13.20;99.90;;;;;;5092976;28;20462;-61
2023/11/20 02:18:36;;;;;;;4.33;3.50;;;13.20;99.90;;;;;;5092729;28;21008;-61
2023/11/20 02:21:03;;;;;;;4.13;3.30;;;13.20;99.90;;;;;;5077521;28;20184;-62
2023/11/20 02:23:29;;;;;;;4.40;3.67;;;13.20;99.90;;;;;;5090363;28;20816;-62
2023/11/20 02:26:32;;;;;;;3.60;3.30;;;13.20;99.90;;;;;;5091727;28;20520;-61
2023/11/20 02:29:16;;;;;;;3.90;3.47;;;13.20;99.90;;;;;;5025594;28;20177;-62
2023/11/20 02:31:42;;;;;;;3.60;3.50;;;13.20;99.90;;;;;;5075838;28;20441;-58
2023/11/20 02:34:07;;;;;;;3.87;3.60;;;13.20;99.90;;;;;;5092735;28;20426;-62
2023/11/20 02:36:33;;;;;;;4.43;4.03;;;13.20;99.90;;;;;;5091736;28;20441;-63
2023/11/20 02:39:00;;;;;;;3.93;3.60;;;13.20;99.90;;;;;;5093655;28;20179;-61
2023/11/20 02:41:26;;;;;;;5.27;3.80;;;13.20;99.90;;;;;;5087364;28;20434;-63
2023/11/20 02:43:52;;;;;;;5.43;4.00;;;13.10;99.90;;;;;;5078966;28;20426;-61
2023/11/20 02:46:17;;;;;;;4.90;4.50;;;13.10;99.90;;;;;;5055904;28;20193;-62
2023/11/20 02:48:43;;;;;;;5.47;4.17;;;13.10;99.90;;;;;;5073908;28;20180;-61
2023/11/20 02:51:09;;;;;;;6.03;4.50;;;13.10;99.90;;;;;;5090257;28;20175;-62
2023/11/20 02:53:35;;;;;;;8.13;4.37;;;13.20;99.90;;;;;;5092149;28;20171;-62
2023/11/20 02:56:02;;;;;;;8.73;4.40;;;13.20;99.90;;;;;;5093268;28;20168;-62
2023/11/20 02:58:27;;;;;;;8.93;5.10;;;13.20;99.90;;;;;;5088948;28;20635;-62
2023/11/20 03:00:53;;;;;;;11.27;4.80;;;13.30;99.90;;;;;;5091203;28;20488;-61
2023/11/20 03:03:19;;;;;;;6.07;3.90;;;13.30;99.90;;;;;;5073733;28;20169;-61
2023/11/20 03:05:45;;;;;;;5.00;4.50;;;13.30;99.90;;;;;;5090208;28;20665;-60
2023/11/20 03:08:11;;;;;;;6.67;4.40;;;13.10;99.90;;;;;;5087290;28;20229;-61
2023/11/20 03:10:39;;;;;;;6.73;4.87;;;13.30;99.90;;;;;;5093635;28;20884;-62
2023/11/20 03:13:05;;;;;;;5.77;4.40;;;13.20;99.90;;;;;;5091129;28;20909;-61
2023/11/20 03:15:31;;;;;;;6.10;4.93;;;13.10;99.90;;;;;;5090346;28;20456;-62
2023/11/20 03:17:57;;;;;;;9.00;5.70;;;13.20;99.90;;;;;;5056773;28;20662;-61
2023/11/20 03:20:23;;;;;;;7.37;4.97;;;13.30;99.90;;;;;;5087372;28;20640;-62
2023/11/20 03:22:50;;;;;;;9.63;5.20;;;13.20;99.90;;;;;;5090843;28;20425;-61
2023/11/20 03:25:16;;;;;;;5.47;4.50;;;13.20;99.90;;;;;;5089709;28;20185;-61
2023/11/20 03:27:42;;;;;;;5.77;4.27;;;13.20;99.90;;;;;;5093283;28;20830;-62
2023/11/20 03:30:09;;;;;;;4.90;4.50;;;13.10;99.90;;;;;;5090756;28;20422;-61
2023/11/20 03:32:37;;;;;;;6.77;5.17;;;13.10;99.90;;;;;;5088175;28;20559;-62
2023/11/20 03:35:06;;;;;;;8.70;4.30;;;13.10;99.90;;;;;;5052340;28;20403;-62
2023/11/20 03:37:32;;;;;;;6.33;4.10;;;13.10;99.90;;;;;;5084950;28;20438;-61
2023/11/20 03:39:58;;;;;;;5.27;4.70;;;13.10;99.90;;;;;;5090844;28;20429;-61
2023/11/20 03:42:24;;;;;;;5.73;4.63;;;13.10;99.90;;;;;;5093266;28;20410;-62
2023/11/20 03:44:50;;;;;;;5.20;4.50;;;13.10;99.90;;;;;;5068349;28;20431;-61
2023/11/20 03:47:16;;;;;;;6.33;4.83;;;13.10;99.90;;;;;;5080095;28;20204;-63
2023/11/20 03:49:41;;;;;;;5.97;4.70;;;13.10;99.90;;;;;;5090978;28;20504;-63
2023/11/20 03:52:07;;;;;;;6.73;5.60;;;13.10;99.90;;;;;;5092304;28;20163;-63
2023/11/20 03:54:33;;;;;;;5.77;4.40;;;13.10;99.90;;;;;;5091060;28;20225;-62
2023/11/20 03:56:59;;;;;;;5.23;4.70;;;13.10;99.90;;;;;;5090507;28;20180;-61
2023/11/20 03:59:25;;;;;;;8.60;4.70;;;13.10;99.90;;;;;;5092783;28;20413;-62
2023/11/20 04:01:51;;;;;;;6.60;5.60;;;13.10;99.90;;;;;;5090070;28;20186;-62
2023/11/20 04:04:16;;;;;;;4.87;4.33;;;13.20;99.90;;;;;;5090686;28;20929;-62
2023/11/20 04:06:42;;;;;;;8.67;4.60;;;13.20;99.90;;;;;;5092587;28;20452;-61
2023/11/20 04:09:08;;;;;;;6.03;5.53;;;13.20;99.90;;;;;;5090313;28;20175;-62
2023/11/20 04:11:35;;;;;;;6.40;4.20;;;13.10;99.90;;;;;;5062723;28;20204;-62
2023/11/20 04:14:01;;;;;;;4.20;3.90;;;13.10;99.90;;;;;;5051743;28;20180;-61
2023/11/20 04:16:27;;;;;;;10.40;4.60;;;13.20;99.90;;;;;;5085554;28;20474;-62
2023/11/20 04:18:53;;;;;;;5.10;4.53;;;13.20;99.90;;;;;;5090261;28;20490;-62
2023/11/20 04:21:19;;;;;;;4.97;4.33;;;13.20;99.90;;;;;;5089739;28;20499;-61
2023/11/20 04:23:45;;;;;;;8.03;4.20;;;13.20;99.90;;;;;;5079278;28;20653;-63
2023/11/20 04:26:10;;;;;;;5.83;4.10;;;13.30;99.90;;;;;;5062583;28;20450;-63
2023/11/20 04:28:36;;;;;;;4.37;3.57;;;13.30;99.90;;;;;;5092510;28;20245;-63
2023/11/20 04:31:02;;;;;;;4.00;3.60;;;13.30;99.90;;;;;;5093294;28;20195;-62
2023/11/20 04:33:28;;;;;;;4.63;3.50;;;13.30;99.90;;;;;;5091265;28;20622;-63
2023/11/20 04:35:53;;;;;;;5.93;3.70;;;13.40;99.90;;;;;;5098599;28;20160;-62
2023/11/20 04:38:19;;;;;;;4.50;3.50;;;13.30;99.90;;;;;;5079035;28;20273;-61
2023/11/20 04:40:48;;;;;;;3.80;3.40;;;13.30;99.90;;;;;;5094439;28;20265;-61
2023/11/20 04:43:15;;;;;;;6.50;3.70;;;13.30;99.90;;;;;;5084594;28;20178;-62
2023/11/20 04:45:40;;;;;;;6.00;2.77;;;13.20;99.90;;;;;;5099380;28;20420;-63
2023/11/20 04:48:08;;;;;;;10.00;3.70;;;13.20;99.90;;;;;;5096453;28;20457;-62
2023/11/20 04:50:34;;;;;;;4.03;2.37;;;13.20;99.90;;;;;;5097003;28;20163;-61
2023/11/20 04:53:00;;;;;;;6.20;2.80;;;13.20;99.90;;;;;;5098373;28;20763;-62
2023/11/20 04:55:28;;;;;;;5.40;5.10;;;13.20;99.90;;;;;;5097106;28;20210;-62
2023/11/20 04:57:54;;;;;;;5.17;4.70;;;13.10;99.90;;;;;;5096387;28;20193;-62
2023/11/20 05:00:19;;;;;;;5.93;3.10;;;13.10;99.90;;;;;;5099252;28;20397;-62
2023/11/20 05:02:45;;;;;;;7.20;3.93;;;13.10;99.90;;;;;;5097067;28;20644;-62
2023/11/20 05:05:11;;;;;;;7.73;3.30;;;13.10;99.90;;;;;;5096337;28;20186;-61
2023/11/20 05:07:37;;;;;;;3.90;3.50;;;13.10;99.90;;;;;;5098853;28;20245;-62
2023/11/20 05:10:05;;;;;;;3.53;2.10;;;13.10;99.90;;;;;;5096254;28;20274;-61
2023/11/20 05:12:32;;;;;;;4.40;2.60;;;13.10;99.90;;;;;;5091891;28;20506;-61
2023/11/20 05:14:57;;;;;;;3.53;2.70;;;13.10;99.90;;;;;;5083050;28;20428;-60
2023/11/20 05:17:23;;;;;;;4.93;2.70;;;13.10;99.90;;;;;;5054437;28;20465;-62
2023/11/20 05:19:49;;;;;;;5.93;3.73;;;13.10;99.90;;;;;;5057316;28;20262;-61
2023/11/20 05:22:17;;;;;;;6.70;2.93;;;13.10;99.90;;;;;;5057637;28;20565;-61
2023/11/20 05:24:43;;;;;;;5.30;4.90;;;13.20;99.90;;;;;;5057355;28;20182;-62
2023/11/20 05:27:09;;;;;;;4.97;2.70;;;13.20;99.90;;;;;;5056309;28;20514;-61
2023/11/20 05:29:39;;;;;;;3.57;3.37;;;13.20;99.90;;;;;;5057903;28;20426;-62
2023/11/20 05:32:06;;;;;;;3.77;2.30;;;13.20;99.90;;;;;;5056499;28;20497;-61
2023/11/20 05:34:33;;;;;;;4.70;2.93;;;13.20;99.90;;;;;;5057090;28;20901;-63
2023/11/20 05:37:00;;;;;;;3.63;3.33;;;13.20;99.90;;;;;;5057331;28;20416;-60
2023/11/20 05:39:25;;;;;;;5.70;3.43;;;13.20;99.90;;;;;;5058028;28;20475;-61
2023/11/20 05:41:52;;;;;;;3.33;2.93;;;13.20;99.90;;;;;;5055557;28;20816;-62
2023/11/20 05:44:19;;;;;;;2.53;2.33;;;13.10;99.90;;;;;;5053941;28;20186;-61
2023/11/20 05:46:45;;;;;;;3.60;3.27;;;13.10;99.90;;;;;;5055234;28;20983;-62
2023/11/20 05:49:11;;;;;;;4.97;2.83;;;13.20;99.90;;;;;;5049971;28;20519;-61
2023/11/20 05:51:36;;;;;;;5.93;2.37;;;13.10;99.90;;;;;;5054102;28;20525;-61
2023/11/20 05:54:02;;;;;;;4.50;2.93;;;13.10;99.90;;;;;;5054400;28;20259;-61
2023/11/20 05:56:29;;;;;;;4.60;3.93;;;13.20;99.90;;;;;;5054004;28;20184;-61
2023/11/20 05:58:56;;;;;;;6.17;3.10;;;13.10;99.90;;;;;;5052811;28;20966;-61
2023/11/20 06:01:22;;;;;;;6.27;5.60;;;13.20;99.90;;;;;;5054109;28;20418;-61
2023/11/20 06:03:48;;;;;;;5.27;3.87;;;13.30;99.90;;;;;;5054085;28;20419;-63
2023/11/20 06:06:23;;;;;;;6.20;5.70;;;13.30;99.90;;;;;;5053037;28;20689;-62
2023/11/20 06:08:49;;;;;;;3.73;3.40;;;13.30;99.90;;;;;;5053199;28;20172;-60
2023/11/20 06:11:21;;;;;;;5.67;4.97;;;13.20;99.90;;;;;;5036362;28;20812;-61
2023/11/20 06:13:47;;;;;;;4.73;3.30;;;13.20;99.90;;;;;;5036023;28;20233;-62
2023/11/20 06:16:16;;;;;;;3.00;2.70;;;13.30;99.90;;;;;;5052967;28;20497;-62
2023/11/20 06:18:45;;;;;;;6.73;3.23;;;13.30;99.90;;;;;;5054215;28;20176;-63
2023/11/20 06:21:11;;;;;;;5.50;3.77;;;13.30;99.90;;;;;;5044902;28;20431;-62
2023/11/20 06:23:36;;;;;;;3.73;3.40;;;13.20;99.90;;;;;;5053691;28;20438;-62
2023/11/20 06:26:03;;;;;;;8.67;4.17;;;13.20;99.90;;;;;;5054033;28;20172;-62
2023/11/20 06:28:29;;;;;;;3.43;3.13;;;13.20;99.90;;;;;;5053313;28;20190;-63
2023/11/20 06:30:55;;;;;;;6.23;5.60;;;13.20;99.90;;;;;;5053193;28;20428;-62
2023/11/20 06:33:21;;;;;;;7.53;3.40;;;13.30;99.90;;;;;;5053891;28;20177;-63
2023/11/20 06:35:47;;;;;;;6.87;5.60;;;13.30;99.90;;;;;;5052957;28;20930;-62
2023/11/20 06:38:13;;;;;;;8.43;5.30;;;13.30;99.90;;;;;;5034534;28;20439;-61
2023/11/20 06:40:42;;;;;;;6.37;3.80;;;13.30;99.90;;;;;;5053636;28;20256;-61
2023/11/20 06:43:08;;;;;;;6.73;3.80;;;13.30;99.90;;;;;;5052471;28;20459;-61
2023/11/20 06:45:37;;;;;;;6.47;4.80;;;13.30;99.90;;;;;;5052848;28;20435;-61
2023/11/20 06:48:03;;;;;;;5.80;5.10;;;13.20;99.90;;;;;;5053201;28;20451;-61
2023/11/20 06:50:29;;;;;;;5.70;5.20;;;13.30;99.90;;;;;;5047942;28;20458;-61
2023/11/20 06:52:55;;;;;;;7.53;4.90;;;13.20;99.90;;;;;;5052155;28;20427;-61
2023/11/20 06:55:23;;;;;;;7.13;4.70;;;13.20;99.90;;;;;;5053180;28;20169;-62
2023/11/20 06:57:49;;;;;;;9.30;5.07;;;13.20;99.90;;;;;;5034907;28;20439;-61
2023/11/20 07:00:16;;;;;;;7.10;4.43;;;13.20;99.90;;;;;;5033957;28;20783;-60
2023/11/20 07:02:42;;;;;;;9.00;4.77;;;13.20;99.90;;;;;;5048034;28;20775;-61
2023/11/20 07:05:11;;;;;;;6.20;5.33;;;13.20;99.90;;;;;;5047234;28;20466;-60
2023/11/20 07:07:41;;;;;;;7.20;5.63;;;13.20;99.90;;;;;;5052347;28;20816;-61
2023/11/20 07:10:11;;;;;;;7.10;4.83;;;13.20;99.90;;;;;;5052351;28;20463;-59
2023/11/20 07:12:40;;;;;;;5.63;4.70;;;13.20;99.90;;;;;;5052350;28;20432;-60
2023/11/20 07:15:07;;;;;;;217.63;150.10;;;13.20;99.90;;;;;;5051508;28;20505;-61
2023/11/20 07:17:35;;;;;;;17.07;11.73;;;13.20;99.90;;;;;;5053210;28;20436;-64
2023/11/20 07:20:02;;;;;;;8.83;5.30;;;13.20;99.90;;;;;;5033419;28;20423;-64
2023/11/20 07:22:28;;;;;;;8.13;5.03;;;13.10;99.90;;;;;;5035841;28;20427;-64
2023/11/20 07:24:54;;;;;;;7.67;5.70;;;13.20;99.90;;;;;;5035129;28;20477;-64
2023/11/20 07:27:20;;;;;;;8.57;5.80;;;13.20;99.90;;;;;;5033820;28;20457;-64
2023/11/20 07:29:46;;;;;;;6.30;5.40;;;13.20;99.90;;;;;;5033469;28;20428;-66
2023/11/20 07:32:12;;;;;;;8.60;5.97;;;13.20;99.90;;;;;;5033311;28;20415;-66
2023/11/20 07:34:38;;;;;;;6.97;4.23;;;13.20;99.90;;;;;;5052187;28;21033;-65
2023/11/20 07:37:04;;;;;;;7.67;4.97;;;13.10;99.90;;;;;;5051411;28;20628;-65
2023/11/20 07:39:30;;;;;;;8.33;5.50;;;13.20;99.90;;;;;;5051667;28;20199;-65
2023/11/20 07:41:56;;;;;;;5.10;4.57;;;13.20;99.90;;;;;;5052553;28;20183;-64
2023/11/20 07:44:22;;;;;;;6.27;4.60;;;13.20;99.90;;;;;;5051237;28;20435;-65
2023/11/20 07:46:48;;;;;;;8.93;5.30;;;13.20;99.90;;;;;;5051779;28;20459;-65
2023/11/20 07:49:14;;;;;;;9.97;4.70;;;13.20;99.90;;;;;;5034210;28;20416;-68
2023/11/20 07:51:40;;;;;;;11.13;5.90;;;13.20;99.90;;;;;;5051790;28;20430;-65
2023/11/20 07:54:08;;;;;;;5.03;4.57;;;13.20;99.90;;;;;;5051069;28;20481;-65
2023/11/20 07:56:34;;;;;;;11.33;5.27;;;13.10;99.90;;;;;;5051448;28;20176;-65
2023/11/20 07:59:00;;;;;;;9.83;4.47;;;13.20;99.90;;;;;;5051942;28;20423;-68
2023/11/20 08:01:26;;;;;;;9.43;5.07;;;13.10;99.90;;;;;;5051315;28;21010;-68
2023/11/20 08:03:52;;;;;;;7.63;5.30;;;13.20;99.90;;;;;;5051632;28;20451;-68
2023/11/20 08:06:19;;;;;;;8.10;4.40;;;13.20;99.90;;;;;;5033781;28;20229;-67
2023/11/20 08:08:45;;;;;;;8.00;5.27;;;13.20;99.90;;;;;;5051189;28;20210;-67
2023/11/20 08:11:12;;;;;;;7.33;5.50;;;13.20;99.90;;;;;;5050360;28;20431;-65
2023/11/20 08:13:37;;;;;;;6.70;5.30;;;13.20;99.90;;;;;;5039824;28;20428;-66
2023/11/20 08:16:03;;;;;;;6.80;5.10;;;13.10;99.90;;;;;;5051354;28;20512;-67
2023/11/20 08:18:30;;;;;;;8.57;5.07;;;13.20;99.90;;;;;;5033895;28;20226;-67
2023/11/20 08:20:56;;;;;;;7.37;5.17;;;13.20;99.90;;;;;;5050992;28;20427;-67
2023/11/20 08:23:22;;;;;;;11.13;5.13;;;13.20;99.90;;;;;;5051126;28;21160;-67
2023/11/20 08:25:48;;;;;;;11.33;4.73;;;13.10;99.90;;;;;;5051336;28;20478;-67
2023/11/20 08:28:14;;;;;;;7.73;4.93;;;13.20;99.90;;;;;;5050409;28;20459;-67
2023/11/20 08:30:40;;;;;;;6.00;5.20;;;13.20;99.90;;;;;;5051792;28;20522;-67
2023/11/20 08:33:07;;;;;;;6.00;4.73;;;13.20;99.90;;;;;;5050511;28;20432;-66
2023/11/20 08:35:34;;;;;;;10.53;4.70;;;13.20;99.90;;;;;;5050510;28;20681;-67
2023/11/20 08:38:01;;;;;;;8.10;4.80;;;13.20;99.90;;;;;;5051385;28;20803;-67
2023/11/20 08:40:26;;;;;;;10.73;4.83;;;13.30;99.90;;;;;;5017432;28;20438;-67
2023/11/20 08:42:52;;;;;;;8.60;5.00;;;13.30;99.90;;;;;;5033549;28;20432;-66
2023/11/20 08:45:20;;;;;;;9.70;5.40;;;13.30;99.90;;;;;;5050711;28;20173;-66
2023/11/20 08:47:46;;;;;;;8.57;4.50;;;13.50;99.90;;;;;;5051667;28;20479;-65
2023/11/20 08:50:12;;;;;;;7.53;5.07;;;13.50;99.90;;;;;;5049901;28;20419;-67
2023/11/20 08:52:38;;;;;;;7.33;4.17;;;13.70;99.90;;;;;;5051016;28;20159;-67
2023/11/20 08:55:06;;;;;;;9.10;4.50;;;14.00;99.90;;;;;;5051614;28;20890;-67
2023/11/20 08:57:35;;;;;;;8.23;4.73;;;14.40;99.90;;;;;;5033175;28;20429;-66
2023/11/20 09:00:02;;;;;;;6.93;5.47;;;14.70;99.90;;;;;;5050769;28;20427;-68
2023/11/20 09:02:28;;;;;;;6.50;4.60;;;15.10;99.90;;;;;;5033602;28;20927;-68
2023/11/20 09:04:53;;;;;;;7.27;5.30;;;15.60;99.90;;;;;;5050960;28;20467;-68
2023/11/20 09:07:19;;;;;;;7.37;5.03;;;16.40;99.90;;;;;;5032085;28;20342;-68
2023/11/20 09:09:45;;;;;;;9.90;5.37;;;17.20;99.90;;;;;;5051778;28;20174;-68
2023/11/20 09:12:11;;;;;;;8.47;5.10;;;17.90;99.90;;;;;;5049804;28;20177;-67
2023/11/20 09:14:37;;;;;;;7.00;5.30;;;18.60;99.10;;;;;;5050814;28;20408;-68
2023/11/20 09:17:02;;;;;;;4.80;4.00;;;19.00;96.80;;;;;;5047623;28;20669;-68
2023/11/20 09:19:28;;;;;;;9.70;4.67;;;19.00;95.80;;;;;;5053103;28;20177;-68
2023/11/20 09:21:54;;;;;;;8.20;4.77;;;18.70;96.10;;;;;;5054106;28;20544;-68
2023/11/20 09:24:20;;;;;;;6.03;4.60;;;18.10;96.80;;;;;;5054662;28;20227;-68
2023/11/20 09:26:45;;;;;;;7.70;4.77;;;17.60;98.00;;;;;;5054519;28;20323;-68
2023/11/20 09:29:11;;;;;;;6.10;3.70;;;17.10;99.00;;;;;;5035772;28;20978;-66
2023/11/20 09:31:37;;;;;;;9.10;4.30;;;16.80;99.90;;;;;;5053208;28;20564;-66
2023/11/20 09:34:04;;;;;;;9.33;4.40;;;17.00;99.90;;;;;;5053784;28;20228;-66
2023/11/20 09:36:31;;;;;;;6.50;4.53;;;17.10;99.90;;;;;;5054590;28;20416;-65
2023/11/20 09:38:57;;;;;;;11.80;4.80;;;16.80;99.90;;;;;;5047811;28;20424;-65
2023/11/20 09:41:25;;;;;;;6.50;4.77;;;16.50;99.90;;;;;;5050440;28;20423;-66
2023/11/20 09:43:52;;;;;;;6.00;4.20;;;16.10;99.90;;;;;;5053902;28;20527;-65
2023/11/20 09:46:20;;;;;;;6.83;4.40;;;15.80;99.90;;;;;;5051459;28;20860;-65
2023/11/20 09:48:48;;;;;;;6.87;4.63;;;15.50;99.90;;;;;;5053726;28;20407;-68
2023/11/20 09:51:22;;;;;;;8.20;4.20;;;15.20;99.90;;;;;;5053010;28;20424;-65
2023/11/20 09:53:49;;;;;;;11.53;4.47;;;15.10;99.90;;;;;;5043034;28;20458;-65
2023/11/20 09:56:16;;;;;;;9.50;4.50;;;15.00;99.90;;;;;;5047485;28;20416;-65
2023/11/20 09:58:42;;;;;;;7.23;4.63;;;15.00;99.90;;;;;;5046706;28;20470;-67
2023/11/20 10:01:10;;;;;;;7.73;4.87;;;14.90;99.90;;;;;;5017088;28;20426;-67
2023/11/20 10:03:39;;;;;;;9.90;4.80;;;14.80;99.90;;;;;;5019004;28;20483;-66
2023/11/20 10:06:17;;;;;;;11.67;6.13;;;14.70;99.90;;;;;;5001134;28;20552;-66
2023/11/20 10:08:45;;;;;;;6.93;4.77;;;14.60;99.90;;;;;;5051742;28;20426;-66
2023/11/20 10:11:15;;;;;;;7.40;4.87;;;14.50;99.90;;;;;;5053429;28;20511;-66
2023/11/20 10:13:41;;;;;;;8.23;5.00;;;14.50;99.90;;;;;;5053300;28;20435;-66
2023/11/20 10:16:16;;;;;;;7.13;4.37;;;14.40;99.90;;;;;;5064678;28;20969;-66
2023/11/20 10:18:42;;;;;;;7.70;4.63;;;14.40;99.90;;;;;;5060201;28;20174;-65
2023/11/20 10:21:12;;;;;;;6.50;4.57;;;14.70;99.90;;;;;;5092730;28;20440;-69
2023/11/20 10:23:39;;;;;;;6.97;3.87;;;14.80;99.90;;;;;;5070677;28;20446;-65
2023/11/20 10:26:06;;;;;;;8.90;4.40;;;14.90;99.90;;;;;;5066435;28;20441;-67
2023/11/20 10:28:32;;;;;;;4.70;3.90;;;15.00;99.90;;;;;;5053988;28;20940;-65
2023/11/20 10:30:59;;;;;;;4.30;3.90;;;15.20;99.90;;;;;;5080643;28;20518;-65
2023/11/20 10:33:25;;;;;;;142.57;100.47;;;15.40;99.90;;;;;;5071668;28;20825;-65
2023/11/20 10:35:51;;;;;;;73.03;54.83;;;15.50;99.90;;;;;;5060533;28;20499;-65
2023/11/20 10:38:18;;;;;;;13.37;7.73;;;15.40;99.90;;;;;;5081850;28;20570;-64
2023/11/20 10:40:44;;;;;;;8.50;5.10;;;15.40;99.90;;;;;;5072789;28;20430;-64
2023/11/20 10:43:10;;;;;;;12.90;4.97;;;15.30;99.90;;;;;;5072118;28;20428;-64
2023/11/20 10:45:37;;;;;;;5.83;4.33;;;15.20;99.90;;;;;;5054868;28;20446;-64
2023/11/20 10:48:07;;;;;;;6.40;4.43;;;15.10;99.90;;;;;;5051615;28;20541;-65
2023/11/20 10:50:36;;;;;;;5.83;4.00;;;15.00;99.90;;;;;;5085957;28;20420;-64
2023/11/20 10:53:07;;;;;;;4.63;3.80;;;14.80;99.90;;;;;;5091676;28;20885;-64
2023/11/20 10:55:49;;;;;;;4.27;3.97;;;14.70;99.90;;;;;;5060718;28;20420;-64
2023/11/20 10:58:16;;;;;;;5.27;4.10;;;14.50;99.90;;;;;;5058456;28;20772;-65
2023/11/20 11:00:42;;;;;;;3.97;3.60;;;14.50;99.90;;;;;;5068414;28;20427;-64
2023/11/20 11:03:11;;;;;;;3.80;2.97;;;14.30;99.90;;;;;;5066480;28;20820;-65
2023/11/20 11:05:43;;;;;;;3.07;2.87;;;14.20;99.90;;;;;;5056979;28;20220;-67
2023/11/20 11:08:13;;;;;;;5.57;3.33;;;14.10;99.90;;;;;;5068285;28;20452;-67
2023/11/20 11:10:40;;;;;;;3.93;3.50;;;14.10;99.90;;;;;;5063456;28;20461;-67
2023/11/20 11:13:10;;;;;;;4.57;4.17;;;14.40;99.90;;;;;;5060824;28;20421;-67
2023/11/20 11:15:40;;;;;;;4.83;3.70;;;14.60;99.90;;;;;;5054102;28;20803;-66
2023/11/20 11:18:12;;;;;;;4.60;4.20;;;14.80;99.90;;;;;;5066329;28;20445;-67
2023/11/20 11:20:58;;;;;;;5.80;3.70;;;15.00;99.90;;;;;;5069907;28;20765;-67
2023/11/20 11:23:49;;;;;;;7.53;3.80;;;15.40;99.90;;;;;;5070709;28;20484;-67
2023/11/20 11:26:25;;;;;;;6.20;4.40;;;15.80;99.90;;;;;;5071176;28;20434;-67
2023/11/20 11:28:55;;;;;;;5.30;4.03;;;16.10;99.90;;;;;;5071978;28;20411;-67
2023/11/20 11:31:25;;;;;;;4.90;3.80;;;16.50;99.90;;;;;;5071241;28;20431;-67
2023/11/20 11:34:18;;;;;;;5.10;3.77;;;16.70;99.90;;;;;;5072274;28;20423;-67
2023/11/20 11:37:06;;;;;;;3.80;3.50;;;16.80;99.90;;;;;;5071559;28;20532;-66
2023/11/20 11:39:40;;;;;;;3.93;3.63;;;17.00;99.90;;;;;;5071615;28;20770;-67
2023/11/20 11:42:13;;;;;;;6.30;4.37;;;17.00;99.90;;;;;;5071546;28;20430;-67
2023/11/20 11:44:41;;;;;;;4.50;4.10;;;17.00;99.90;;;;;;5071268;28;20434;-67
2023/11/20 11:47:12;;;;;;;7.17;4.80;;;17.20;99.90;;;;;;5072420;28;20493;-68
2023/11/20 11:49:51;;;;;;;5.77;4.13;;;17.10;99.90;;;;;;5070261;28;20427;-68
2023/11/20 11:52:33;;;;;;;7.10;4.20;;;17.10;99.90;;;;;;5071008;28;20534;-67
2023/11/20 11:55:20;;;;;;;4.73;4.33;;;17.10;99.90;;;;;;5072321;28;20419;-67
2023/11/20 11:57:59;;;;;;;4.20;3.70;;;17.10;99.90;;;;;;5052800;28;20423;-68
2023/11/20 12:00:26;;;;;;;4.13;3.77;;;17.10;99.90;;;;;;5070510;28;20411;-65
2023/11/20 12:03:11;;;;;;;4.63;3.40;;;17.20;99.90;;;;;;5067113;28;20497;-66
2023/11/20 12:05:55;;;;;;;4.20;3.80;;;17.20;99.90;;;;;;5058727;28;20515;-68
2023/11/20 12:08:22;;;;;;;3.70;3.40;;;17.10;99.90;;;;;;5055952;28;20455;-68
2023/11/20 12:10:50;;;;;;;3.70;3.40;;;17.20;99.90;;;;;;5072793;28;20411;-67
2023/11/20 12:13:20;;;;;;;4.30;4.00;;;17.20;99.90;;;;;;5071351;28;20438;-69
2023/11/20 12:15:50;;;;;;;3.43;3.23;;;17.10;99.90;;;;;;5069729;28;20463;-67
2023/11/20 12:18:21;;;;;;;4.53;4.13;;;17.10;99.90;;;;;;5071828;28;20427;-69
2023/11/20 12:20:52;;;;;;;4.53;4.10;;;16.90;99.90;;;;;;5070817;28;20431;-67
2023/11/20 12:23:22;;;;;;;4.00;3.60;;;16.80;99.90;;;;;;5070532;28;20431;-67
2023/11/20 12:25:51;;;;;;;5.60;3.40;;;16.70;99.90;;;;;;5071449;28;20430;-67
2023/11/20 12:28:17;;;;;;;5.30;3.90;;;16.60;99.90;;;;;;5054045;28;20486;-68
2023/11/20 12:30:44;;;;;;;3.43;3.13;;;16.50;99.90;;;;;;5070520;28;20455;-67
2023/11/20 12:33:09;;;;;;;4.03;3.73;;;16.60;99.90;;;;;;5066550;28;20428;-67
2023/11/20 12:35:36;;;;;;;4.17;3.60;;;16.60;99.90;;;;;;5051760;28;20462;-67
2023/11/20 12:38:06;;;;;;;4.00;3.60;;;16.70;99.90;;;;;;5064357;28;20185;-67
2023/11/20 12:40:33;;;;;;;4.10;3.70;;;16.70;99.90;;;;;;5070739;28;20426;-67
2023/11/20 12:42:59;;;;;;;4.13;3.60;;;16.70;99.90;;;;;;5070925;28;20419;-67
2023/11/20 12:45:26;;;;;;;4.27;3.53;;;16.80;99.90;;;;;;5069788;28;20526;-67
2023/11/20 12:47:51;;;;;;;6.17;4.10;;;16.80;99.90;;;;;;5072067;28;20476;-67